sensor_id;sensor_type;location;lat;lon;timestamp;P1;durP1;ratioP1;P2;durP2;ratioP2
25980;SDS011;13772;52.996;9.124;2022-09-24T09:21:18;24.27;;;18.75;;
25980;SDS011;13772;52.996;9.124;2022-09-24T09:23:48;21.70;;;18.50;;
25980;SDS011;13772;52.996;9.124;2022-09-24T09:26:13;22.92;;;19.92;;
25980;SDS011;13772;52.996;9.124;2022-09-24T09:28:41;27.52;;;21.25;;
25980;SDS011;13772;52.996;9.124;2022-09-24T09:36:34;26.23;;;21.70;;
25980;SDS011;13772;52.996;9.124;2022-09-24T09:41:46;32.10;;;23.98;;
25980;SDS011;13772;52.996;9.124;2022-09-24T09:44:14;31.70;;;24.58;;
25980;SDS011;13772;52.996;9.124;2022-09-24T09:46:45;31.77;;;24.75;;
25980;SDS011;13772;52.996;9.124;2022-09-24T09:49:14;29.55;;;24.65;;
25980;SDS011;13772;52.996;9.124;2022-09-24T09:51:41;31.95;;;25.35;;
25980;SDS011;13772;52.996;9.124;2022-09-24T09:54:06;31.63;;;25.40;;
25980;SDS011;13772;52.996;9.124;2022-09-24T09:56:32;33.28;;;27.13;;
25980;SDS011;13772;52.996;9.124;2022-09-24T10:01:30;36.03;;;27.80;;
25980;SDS011;13772;52.996;9.124;2022-09-24T10:03:57;36.70;;;29.05;;
25980;SDS011;13772;52.996;9.124;2022-09-24T10:06:29;37.17;;;28.57;;
25980;SDS011;13772;52.996;9.124;2022-09-24T10:09:12;39.28;;;30.08;;
25980;SDS011;13772;52.996;9.124;2022-09-24T10:11:37;36.58;;;29.00;;
25980;SDS011;13772;52.996;9.124;2022-09-24T10:14:03;38.67;;;30.73;;
25980;SDS011;13772;52.996;9.124;2022-09-24T10:16:29;31.65;;;27.02;;
25980;SDS011;13772;52.996;9.124;2022-09-24T10:18:54;39.50;;;29.88;;
25980;SDS011;13772;52.996;9.124;2022-09-24T10:21:29;39.70;;;29.88;;
25980;SDS011;13772;52.996;9.124;2022-09-24T10:23:57;37.22;;;28.23;;
25980;SDS011;13772;52.996;9.124;2022-09-24T10:26:32;33.30;;;27.58;;
25980;SDS011;13772;52.996;9.124;2022-09-24T10:28:57;33.83;;;28.48;;
25980;SDS011;13772;52.996;9.124;2022-09-24T10:31:43;39.50;;;31.55;;
25980;SDS011;13772;52.996;9.124;2022-09-24T10:34:23;34.97;;;28.70;;
25980;SDS011;13772;52.996;9.124;2022-09-24T10:36:51;35.60;;;29.95;;
25980;SDS011;13772;52.996;9.124;2022-09-24T10:39:16;36.03;;;30.38;;
25980;SDS011;13772;52.996;9.124;2022-09-24T10:41:45;38.17;;;30.05;;
25980;SDS011;13772;52.996;9.124;2022-09-24T10:44:12;37.25;;;30.80;;
25980;SDS011;13772;52.996;9.124;2022-09-24T10:52:11;34.45;;;28.42;;
25980;SDS011;13772;52.996;9.124;2022-09-24T10:54:47;36.95;;;29.75;;
25980;SDS011;13772;52.996;9.124;2022-09-24T10:57:30;37.75;;;29.30;;
25980;SDS011;13772;52.996;9.124;2022-09-24T11:00:00;34.83;;;28.48;;
25980;SDS011;13772;52.996;9.124;2022-09-24T11:04:58;35.40;;;27.67;;
25980;SDS011;13772;52.996;9.124;2022-09-24T11:07:30;38.70;;;30.80;;
25980;SDS011;13772;52.996;9.124;2022-09-24T11:10:20;40.90;;;32.50;;
25980;SDS011;13772;52.996;9.124;2022-09-24T11:15:39;40.55;;;31.52;;
25980;SDS011;13772;52.996;9.124;2022-09-24T11:31:19;36.08;;;28.42;;
25980;SDS011;13772;52.996;9.124;2022-09-24T11:36:40;36.03;;;29.52;;
25980;SDS011;13772;52.996;9.124;2022-09-24T11:44:11;36.88;;;29.05;;
25980;SDS011;13772;52.996;9.124;2022-09-24T11:52:05;36.17;;;28.63;;
25980;SDS011;13772;52.996;9.124;2022-09-24T11:54:42;35.22;;;29.02;;
25980;SDS011;13772;52.996;9.124;2022-09-24T11:57:13;31.85;;;25.98;;
25980;SDS011;13772;52.996;9.124;2022-09-24T12:07:06;34.05;;;26.70;;
25980;SDS011;13772;52.996;9.124;2022-09-24T12:09:38;28.75;;;23.63;;
25980;SDS011;13772;52.996;9.124;2022-09-24T12:12:06;31.05;;;24.58;;
25980;SDS011;13772;52.996;9.124;2022-09-24T12:17:05;29.35;;;23.27;;
25980;SDS011;13772;52.996;9.124;2022-09-24T12:19:39;31.17;;;24.10;;
25980;SDS011;13772;52.996;9.124;2022-09-24T12:22:07;30.50;;;24.13;;
25980;SDS011;13772;52.996;9.124;2022-09-24T12:24:53;28.60;;;24.00;;
25980;SDS011;13772;52.996;9.124;2022-09-24T12:27:35;27.63;;;23.95;;
25980;SDS011;13772;52.996;9.124;2022-09-24T12:33:09;30.50;;;23.55;;
25980;SDS011;13772;52.996;9.124;2022-09-24T12:35:44;27.35;;;22.98;;
25980;SDS011;13772;52.996;9.124;2022-09-24T12:38:16;30.40;;;24.80;;
25980;SDS011;13772;52.996;9.124;2022-09-24T12:43:20;28.10;;;22.42;;
25980;SDS011;13772;52.996;9.124;2022-09-24T12:45:52;29.50;;;23.73;;
25980;SDS011;13772;52.996;9.124;2022-09-24T12:48:19;29.30;;;23.95;;
25980;SDS011;13772;52.996;9.124;2022-09-24T12:50:45;32.13;;;23.98;;
25980;SDS011;13772;52.996;9.124;2022-09-24T12:53:20;30.98;;;24.08;;
25980;SDS011;13772;52.996;9.124;2022-09-24T12:55:48;30.08;;;23.58;;
25980;SDS011;13772;52.996;9.124;2022-09-24T13:01:05;32.60;;;24.55;;
25980;SDS011;13772;52.996;9.124;2022-09-24T13:03:32;31.88;;;24.25;;
25980;SDS011;13772;52.996;9.124;2022-09-24T13:05:58;32.17;;;25.45;;
25980;SDS011;13772;52.996;9.124;2022-09-24T13:08:25;28.42;;;22.60;;
25980;SDS011;13772;52.996;9.124;2022-09-24T13:10:59;34.72;;;26.17;;
25980;SDS011;13772;52.996;9.124;2022-09-24T13:13:30;33.55;;;25.05;;
25980;SDS011;13772;52.996;9.124;2022-09-24T13:15:59;34.10;;;26.75;;
25980;SDS011;13772;52.996;9.124;2022-09-24T13:18:25;33.10;;;24.58;;
25980;SDS011;13772;52.996;9.124;2022-09-24T13:21:04;35.88;;;26.08;;
25980;SDS011;13772;52.996;9.124;2022-09-24T13:23:31;33.60;;;25.67;;
25980;SDS011;13772;52.996;9.124;2022-09-24T13:28:27;38.03;;;28.02;;
25980;SDS011;13772;52.996;9.124;2022-09-24T13:30:54;35.22;;;25.58;;
25980;SDS011;13772;52.996;9.124;2022-09-24T13:33:32;33.13;;;25.55;;
25980;SDS011;13772;52.996;9.124;2022-09-24T13:36:14;38.33;;;27.15;;
25980;SDS011;13772;52.996;9.124;2022-09-24T13:38:55;37.83;;;28.13;;
25980;SDS011;13772;52.996;9.124;2022-09-24T13:46:20;39.90;;;29.70;;
25980;SDS011;13772;52.996;9.124;2022-09-24T13:48:54;41.40;;;30.30;;
25980;SDS011;13772;52.996;9.124;2022-09-24T13:51:22;39.85;;;31.15;;
25980;SDS011;13772;52.996;9.124;2022-09-24T13:53:50;41.85;;;31.85;;
25980;SDS011;13772;52.996;9.124;2022-09-24T13:56:17;44.10;;;32.10;;
25980;SDS011;13772;52.996;9.124;2022-09-24T13:58:43;42.03;;;31.75;;
25980;SDS011;13772;52.996;9.124;2022-09-24T14:01:13;41.65;;;31.48;;
25980;SDS011;13772;52.996;9.124;2022-09-24T14:03:39;41.90;;;32.72;;
25980;SDS011;13772;52.996;9.124;2022-09-24T14:06:12;41.20;;;31.40;;
25980;SDS011;13772;52.996;9.124;2022-09-24T14:08:41;41.47;;;32.05;;
25980;SDS011;13772;52.996;9.124;2022-09-24T14:13:34;42.45;;;29.10;;
25980;SDS011;13772;52.996;9.124;2022-09-24T14:16:09;41.45;;;30.95;;
25980;SDS011;13772;52.996;9.124;2022-09-24T14:18:35;40.42;;;30.48;;
25980;SDS011;13772;52.996;9.124;2022-09-24T14:21:06;40.20;;;29.85;;
25980;SDS011;13772;52.996;9.124;2022-09-24T14:23:48;42.70;;;31.75;;
25980;SDS011;13772;52.996;9.124;2022-09-24T14:26:57;41.63;;;29.83;;
25980;SDS011;13772;52.996;9.124;2022-09-24T14:29:05;39.78;;;30.17;;
25980;SDS011;13772;52.996;9.124;2022-09-24T14:31:31;39.13;;;29.65;;
25980;SDS011;13772;52.996;9.124;2022-09-24T14:33:58;39.38;;;29.52;;
25980;SDS011;13772;52.996;9.124;2022-09-24T14:36:25;39.53;;;31.15;;
25980;SDS011;13772;52.996;9.124;2022-09-24T14:38:55;38.80;;;30.05;;
25980;SDS011;13772;52.996;9.124;2022-09-24T14:41:23;48.15;;;35.47;;
25980;SDS011;13772;52.996;9.124;2022-09-24T14:43:50;129.25;;;73.65;;
25980;SDS011;13772;52.996;9.124;2022-09-24T14:46:27;47.70;;;33.83;;
25980;SDS011;13772;52.996;9.124;2022-09-24T14:51:57;46.78;;;36.17;;
25980;SDS011;13772;52.996;9.124;2022-09-24T14:54:26;44.80;;;33.13;;
25980;SDS011;13772;52.996;9.124;2022-09-24T14:56:52;48.95;;;34.92;;
25980;SDS011;13772;52.996;9.124;2022-09-24T14:59:28;41.85;;;32.42;;
25980;SDS011;13772;52.996;9.124;2022-09-24T15:04:39;46.10;;;33.63;;
25980;SDS011;13772;52.996;9.124;2022-09-24T15:07:12;43.97;;;32.30;;
25980;SDS011;13772;52.996;9.124;2022-09-24T15:09:38;37.85;;;29.20;;
25980;SDS011;13772;52.996;9.124;2022-09-24T15:12:07;35.55;;;28.55;;
25980;SDS011;13772;52.996;9.124;2022-09-24T15:14:33;35.00;;;27.67;;
25980;SDS011;13772;52.996;9.124;2022-09-24T15:19:42;34.35;;;27.80;;
25980;SDS011;13772;52.996;9.124;2022-09-24T15:22:08;36.42;;;29.52;;
25980;SDS011;13772;52.996;9.124;2022-09-24T15:24:34;37.85;;;29.10;;
25980;SDS011;13772;52.996;9.124;2022-09-24T15:27:00;37.47;;;29.05;;
25980;SDS011;13772;52.996;9.124;2022-09-24T15:29:26;38.40;;;28.95;;
25980;SDS011;13772;52.996;9.124;2022-09-24T15:31:51;37.53;;;28.20;;
25980;SDS011;13772;52.996;9.124;2022-09-24T15:34:17;37.47;;;29.17;;
25980;SDS011;13772;52.996;9.124;2022-09-24T15:36:42;43.95;;;29.77;;
25980;SDS011;13772;52.996;9.124;2022-09-24T15:39:08;36.75;;;27.42;;
25980;SDS011;13772;52.996;9.124;2022-09-24T15:41:33;36.95;;;27.88;;
25980;SDS011;13772;52.996;9.124;2022-09-24T15:43:59;35.60;;;28.42;;
25980;SDS011;13772;52.996;9.124;2022-09-24T15:46:24;40.35;;;28.58;;
25980;SDS011;13772;52.996;9.124;2022-09-24T15:48:50;40.05;;;29.60;;
25980;SDS011;13772;52.996;9.124;2022-09-24T15:51:16;38.97;;;28.90;;
25980;SDS011;13772;52.996;9.124;2022-09-24T15:53:42;37.15;;;29.88;;
25980;SDS011;13772;52.996;9.124;2022-09-24T15:56:07;37.15;;;28.80;;
25980;SDS011;13772;52.996;9.124;2022-09-24T15:58:33;40.83;;;29.65;;
25980;SDS011;13772;52.996;9.124;2022-09-24T16:00:58;40.08;;;31.13;;
25980;SDS011;13772;52.996;9.124;2022-09-24T16:03:24;39.53;;;29.25;;
25980;SDS011;13772;52.996;9.124;2022-09-24T16:05:50;37.90;;;29.63;;
25980;SDS011;13772;52.996;9.124;2022-09-24T16:08:15;41.65;;;30.63;;
25980;SDS011;13772;52.996;9.124;2022-09-24T16:10:41;37.83;;;28.17;;
25980;SDS011;13772;52.996;9.124;2022-09-24T16:13:07;37.50;;;30.20;;
25980;SDS011;13772;52.996;9.124;2022-09-24T16:15:33;43.90;;;30.48;;
25980;SDS011;13772;52.996;9.124;2022-09-24T16:17:59;43.42;;;31.27;;
25980;SDS011;13772;52.996;9.124;2022-09-24T16:20:24;44.80;;;30.23;;
25980;SDS011;13772;52.996;9.124;2022-09-24T16:22:50;36.75;;;29.15;;
25980;SDS011;13772;52.996;9.124;2022-09-24T16:25:15;65.20;;;41.05;;
25980;SDS011;13772;52.996;9.124;2022-09-24T16:27:40;84.45;;;51.58;;
25980;SDS011;13772;52.996;9.124;2022-09-24T16:30:06;105.65;;;62.22;;
25980;SDS011;13772;52.996;9.124;2022-09-24T16:32:32;105.70;;;67.57;;
25980;SDS011;13772;52.996;9.124;2022-09-24T16:34:57;47.33;;;32.63;;
25980;SDS011;13772;52.996;9.124;2022-09-24T16:37:23;45.17;;;32.65;;
25980;SDS011;13772;52.996;9.124;2022-09-24T16:39:48;88.80;;;62.53;;
25980;SDS011;13772;52.996;9.124;2022-09-24T16:42:13;57.92;;;41.28;;
25980;SDS011;13772;52.996;9.124;2022-09-24T16:44:38;50.60;;;37.53;;
25980;SDS011;13772;52.996;9.124;2022-09-24T16:47:04;49.13;;;34.90;;
25980;SDS011;13772;52.996;9.124;2022-09-24T16:49:29;51.30;;;37.92;;
25980;SDS011;13772;52.996;9.124;2022-09-24T16:51:54;59.63;;;42.17;;
25980;SDS011;13772;52.996;9.124;2022-09-24T16:54:20;46.90;;;34.38;;
25980;SDS011;13772;52.996;9.124;2022-09-24T16:56:47;40.83;;;29.52;;
25980;SDS011;13772;52.996;9.124;2022-09-24T16:59:12;37.85;;;28.30;;
25980;SDS011;13772;52.996;9.124;2022-09-24T17:01:39;41.50;;;29.63;;
25980;SDS011;13772;52.996;9.124;2022-09-24T17:04:06;43.35;;;30.23;;
25980;SDS011;13772;52.996;9.124;2022-09-24T17:06:31;36.47;;;28.02;;
25980;SDS011;13772;52.996;9.124;2022-09-24T17:08:58;35.67;;;26.25;;
25980;SDS011;13772;52.996;9.124;2022-09-24T17:11:42;35.70;;;27.75;;
25980;SDS011;13772;52.996;9.124;2022-09-24T17:14:09;42.30;;;29.08;;
25980;SDS011;13772;52.996;9.124;2022-09-24T17:16:36;40.50;;;27.48;;
25980;SDS011;13772;52.996;9.124;2022-09-24T17:19:01;41.17;;;29.58;;
25980;SDS011;13772;52.996;9.124;2022-09-24T17:21:27;48.72;;;34.25;;
25980;SDS011;13772;52.996;9.124;2022-09-24T17:23:52;79.72;;;54.72;;
25980;SDS011;13772;52.996;9.124;2022-09-24T17:26:18;39.30;;;29.17;;
25980;SDS011;13772;52.996;9.124;2022-09-24T17:28:45;39.67;;;27.23;;
25980;SDS011;13772;52.996;9.124;2022-09-24T17:31:11;34.47;;;26.27;;
25980;SDS011;13772;52.996;9.124;2022-09-24T17:33:36;39.03;;;26.25;;
25980;SDS011;13772;52.996;9.124;2022-09-24T17:36:03;36.13;;;26.67;;
25980;SDS011;13772;52.996;9.124;2022-09-24T17:38:28;38.45;;;26.90;;
25980;SDS011;13772;52.996;9.124;2022-09-24T17:41:01;35.03;;;26.00;;
25980;SDS011;13772;52.996;9.124;2022-09-24T17:43:28;37.97;;;26.15;;
25980;SDS011;13772;52.996;9.124;2022-09-24T17:48:22;38.00;;;26.58;;
25980;SDS011;13772;52.996;9.124;2022-09-24T17:50:56;39.55;;;25.67;;
25980;SDS011;13772;52.996;9.124;2022-09-24T17:53:22;35.78;;;26.58;;
25980;SDS011;13772;52.996;9.124;2022-09-24T17:55:48;34.53;;;26.08;;
25980;SDS011;13772;52.996;9.124;2022-09-24T17:58:14;35.97;;;27.20;;
25980;SDS011;13772;52.996;9.124;2022-09-24T18:00:39;36.72;;;27.20;;
25980;SDS011;13772;52.996;9.124;2022-09-24T18:03:04;35.47;;;26.85;;
25980;SDS011;13772;52.996;9.124;2022-09-24T18:05:29;38.72;;;28.80;;
25980;SDS011;13772;52.996;9.124;2022-09-24T18:07:55;39.63;;;28.65;;
25980;SDS011;13772;52.996;9.124;2022-09-24T18:10:20;39.83;;;29.10;;
25980;SDS011;13772;52.996;9.124;2022-09-24T18:12:45;38.42;;;29.23;;
25980;SDS011;13772;52.996;9.124;2022-09-24T18:15:10;37.08;;;27.67;;
25980;SDS011;13772;52.996;9.124;2022-09-24T18:17:35;37.10;;;27.67;;
25980;SDS011;13772;52.996;9.124;2022-09-24T18:20:01;38.30;;;27.77;;
25980;SDS011;13772;52.996;9.124;2022-09-24T18:22:26;39.00;;;28.45;;
25980;SDS011;13772;52.996;9.124;2022-09-24T18:24:51;41.05;;;28.23;;
25980;SDS011;13772;52.996;9.124;2022-09-24T18:27:16;37.53;;;28.20;;
25980;SDS011;13772;52.996;9.124;2022-09-24T18:29:41;41.75;;;29.00;;
25980;SDS011;13772;52.996;9.124;2022-09-24T18:32:08;38.15;;;28.30;;
25980;SDS011;13772;52.996;9.124;2022-09-24T18:34:33;41.65;;;29.45;;
25980;SDS011;13772;52.996;9.124;2022-09-24T18:36:58;36.88;;;27.40;;
25980;SDS011;13772;52.996;9.124;2022-09-24T18:39:24;35.92;;;27.15;;
25980;SDS011;13772;52.996;9.124;2022-09-24T18:41:49;37.35;;;28.38;;
25980;SDS011;13772;52.996;9.124;2022-09-24T18:44:14;36.40;;;26.95;;
25980;SDS011;13772;52.996;9.124;2022-09-24T18:46:39;39.15;;;26.88;;
25980;SDS011;13772;52.996;9.124;2022-09-24T18:49:05;33.40;;;26.02;;
25980;SDS011;13772;52.996;9.124;2022-09-24T18:51:32;33.13;;;25.98;;
25980;SDS011;13772;52.996;9.124;2022-09-24T18:53:58;35.75;;;25.80;;
25980;SDS011;13772;52.996;9.124;2022-09-24T18:56:24;35.92;;;26.27;;
25980;SDS011;13772;52.996;9.124;2022-09-24T18:58:53;32.70;;;25.42;;
25980;SDS011;13772;52.996;9.124;2022-09-24T19:01:18;36.63;;;26.77;;
25980;SDS011;13772;52.996;9.124;2022-09-24T19:03:44;37.00;;;26.80;;
25980;SDS011;13772;52.996;9.124;2022-09-24T19:06:09;32.08;;;25.80;;
25980;SDS011;13772;52.996;9.124;2022-09-24T19:08:36;38.75;;;29.42;;
25980;SDS011;13772;52.996;9.124;2022-09-24T19:11:02;35.30;;;28.30;;
25980;SDS011;13772;52.996;9.124;2022-09-24T19:13:31;62.97;;;35.42;;
25980;SDS011;13772;52.996;9.124;2022-09-24T19:15:56;68.70;;;37.55;;
25980;SDS011;13772;52.996;9.124;2022-09-24T19:18:26;116.60;;;55.67;;
25980;SDS011;13772;52.996;9.124;2022-09-24T19:20:51;92.75;;;46.97;;
25980;SDS011;13772;52.996;9.124;2022-09-24T19:23:17;76.93;;;43.38;;
25980;SDS011;13772;52.996;9.124;2022-09-24T19:25:42;53.50;;;38.20;;
25980;SDS011;13772;52.996;9.124;2022-09-24T19:28:09;56.45;;;38.70;;
25980;SDS011;13772;52.996;9.124;2022-09-24T19:30:36;40.95;;;29.10;;
25980;SDS011;13772;52.996;9.124;2022-09-24T19:33:01;39.70;;;28.65;;
25980;SDS011;13772;52.996;9.124;2022-09-24T19:35:26;46.20;;;36.17;;
25980;SDS011;13772;52.996;9.124;2022-09-24T19:37:52;42.78;;;31.00;;
25980;SDS011;13772;52.996;9.124;2022-09-24T19:40:17;31.42;;;25.70;;
25980;SDS011;13772;52.996;9.124;2022-09-24T19:42:43;32.90;;;26.38;;
25980;SDS011;13772;52.996;9.124;2022-09-24T19:45:08;29.40;;;24.08;;
25980;SDS011;13772;52.996;9.124;2022-09-24T19:47:34;28.77;;;22.55;;
25980;SDS011;13772;52.996;9.124;2022-09-24T19:49:59;31.50;;;22.23;;
25980;SDS011;13772;52.996;9.124;2022-09-24T19:52:24;26.50;;;21.75;;
25980;SDS011;13772;52.996;9.124;2022-09-24T19:54:50;28.35;;;23.50;;
25980;SDS011;13772;52.996;9.124;2022-09-24T19:57:15;27.67;;;21.38;;
25980;SDS011;13772;52.996;9.124;2022-09-24T19:59:40;27.67;;;23.08;;
25980;SDS011;13772;52.996;9.124;2022-09-24T20:02:07;30.48;;;22.65;;
25980;SDS011;13772;52.996;9.124;2022-09-24T20:04:33;27.73;;;22.58;;
25980;SDS011;13772;52.996;9.124;2022-09-24T20:06:59;30.42;;;23.40;;
25980;SDS011;13772;52.996;9.124;2022-09-24T20:09:24;26.80;;;22.58;;
25980;SDS011;13772;52.996;9.124;2022-09-24T20:11:49;31.13;;;23.85;;
25980;SDS011;13772;52.996;9.124;2022-09-24T20:14:15;29.15;;;23.88;;
25980;SDS011;13772;52.996;9.124;2022-09-24T20:16:41;31.75;;;25.05;;
25980;SDS011;13772;52.996;9.124;2022-09-24T20:19:10;31.67;;;25.42;;
25980;SDS011;13772;52.996;9.124;2022-09-24T20:21:35;29.85;;;24.67;;
25980;SDS011;13772;52.996;9.124;2022-09-24T20:24:01;34.72;;;25.10;;
25980;SDS011;13772;52.996;9.124;2022-09-24T20:26:27;35.70;;;25.23;;
25980;SDS011;13772;52.996;9.124;2022-09-24T20:29:12;32.60;;;24.90;;
25980;SDS011;13772;52.996;9.124;2022-09-24T20:31:41;30.23;;;23.92;;
25980;SDS011;13772;52.996;9.124;2022-09-24T20:34:09;29.92;;;24.70;;
25980;SDS011;13772;52.996;9.124;2022-09-24T20:36:34;29.63;;;24.20;;
25980;SDS011;13772;52.996;9.124;2022-09-24T20:38:59;32.90;;;24.15;;
25980;SDS011;13772;52.996;9.124;2022-09-24T20:41:25;30.15;;;23.13;;
25980;SDS011;13772;52.996;9.124;2022-09-24T20:43:52;32.85;;;24.65;;
25980;SDS011;13772;52.996;9.124;2022-09-24T20:46:21;28.20;;;23.17;;
25980;SDS011;13772;52.996;9.124;2022-09-24T20:48:47;32.63;;;23.20;;
25980;SDS011;13772;52.996;9.124;2022-09-24T20:51:14;33.22;;;24.33;;
25980;SDS011;13772;52.996;9.124;2022-09-24T20:53:41;32.45;;;25.13;;
25980;SDS011;13772;52.996;9.124;2022-09-24T20:56:07;31.55;;;24.95;;
25980;SDS011;13772;52.996;9.124;2022-09-24T20:58:33;30.00;;;25.17;;
25980;SDS011;13772;52.996;9.124;2022-09-24T21:00:58;32.92;;;24.65;;
25980;SDS011;13772;52.996;9.124;2022-09-24T21:03:24;37.30;;;25.92;;
25980;SDS011;13772;52.996;9.124;2022-09-24T21:06:06;35.53;;;24.67;;
25980;SDS011;13772;52.996;9.124;2022-09-24T21:11:00;32.85;;;25.63;;
25980;SDS011;13772;52.996;9.124;2022-09-24T21:13:25;36.97;;;26.67;;
25980;SDS011;13772;52.996;9.124;2022-09-24T21:16:00;33.65;;;24.38;;
25980;SDS011;13772;52.996;9.124;2022-09-24T21:18:29;36.08;;;25.60;;
25980;SDS011;13772;52.996;9.124;2022-09-24T21:20:56;34.65;;;24.58;;
25980;SDS011;13772;52.996;9.124;2022-09-24T21:23:25;37.17;;;25.13;;
25980;SDS011;13772;52.996;9.124;2022-09-24T21:25:50;30.67;;;23.85;;
25980;SDS011;13772;52.996;9.124;2022-09-24T21:28:16;31.50;;;24.58;;
25980;SDS011;13772;52.996;9.124;2022-09-24T21:30:41;30.38;;;23.88;;
25980;SDS011;13772;52.996;9.124;2022-09-24T21:33:06;30.95;;;22.35;;
25980;SDS011;13772;52.996;9.124;2022-09-24T21:35:32;33.40;;;21.90;;
25980;SDS011;13772;52.996;9.124;2022-09-24T21:37:57;28.70;;;19.52;;
25980;SDS011;13772;52.996;9.124;2022-09-24T21:40:22;21.50;;;16.70;;
25980;SDS011;13772;52.996;9.124;2022-09-24T21:42:47;20.38;;;14.85;;
25980;SDS011;13772;52.996;9.124;2022-09-24T21:45:16;21.38;;;14.75;;
25980;SDS011;13772;52.996;9.124;2022-09-24T21:47:41;23.00;;;15.48;;
25980;SDS011;13772;52.996;9.124;2022-09-24T21:50:07;19.88;;;14.57;;
25980;SDS011;13772;52.996;9.124;2022-09-24T21:52:33;18.35;;;14.73;;
25980;SDS011;13772;52.996;9.124;2022-09-24T21:54:58;17.73;;;14.13;;
25980;SDS011;13772;52.996;9.124;2022-09-24T21:57:23;19.10;;;14.65;;
